Time;durP1;ratioP1;P1;durP2;ratioP2;P2;SDS_P1;SDS_P2;PMS_P1;PMS_P2;Temp;Humidity;BMP_temperature;BMP_pressure;BME280_temperature;BME280_humidity;BME280_pressure;Samples;Min_cycle;Max_cycle;Signal;HPM_P1;HPM_P2
2022/12/10 00:01:59;;;;;;;31.40;7.43;;;;;;;7.29;69.48;98172.37;7700983;32;38520;-80
2022/12/10 00:06:19;;;;;;;9.10;6.20;;;;;;;7.53;68.95;98185.91;7686111;32;37124;-80
2022/12/10 00:10:38;;;;;;;11.65;5.68;;;;;;;7.71;68.04;98181.63;7698509;32;39255;-80
2022/12/10 00:14:55;;;;;;;9.70;6.05;;;;;;;7.69;67.82;98172.94;7712678;32;39800;-80
2022/12/10 00:19:11;;;;;;;10.10;5.62;;;;;;;7.82;67.52;98187.69;7708258;32;38415;-81
2022/12/10 00:23:27;;;;;;;9.35;5.47;;;;;;;7.80;67.53;98185.28;7685801;32;37079;-80
2022/12/10 00:27:43;;;;;;;9.85;5.37;;;;;;;7.86;67.16;98186.00;7685787;32;39290;-79
2022/12/10 00:31:59;;;;;;;10.65;5.28;;;;;;;7.65;68.02;98194.41;7705893;32;39915;-80
2022/12/10 00:36:21;;;;;;;160.32;11.02;;;;;;;7.51;68.43;98194.31;7712342;32;37835;-80
2022/12/10 00:40:37;;;;;;;9.40;5.60;;;;;;;7.41;68.97;98196.34;7699540;32;37429;-80
2022/12/10 00:44:53;;;;;;;12.32;5.60;;;;;;;7.65;68.25;98205.25;7684691;32;39859;-80
2022/12/10 00:49:10;;;;;;;11.70;5.43;;;;;;;7.61;68.30;98203.44;7688547;32;40844;-80
2022/12/10 00:53:27;;;;;;;8.95;4.68;;;;;;;7.94;67.17;98211.69;7712052;32;35706;-81
2022/12/10 00:57:43;;;;;;;8.27;4.72;;;;;;;7.82;67.60;98225.69;7710914;32;37723;-80
2022/12/10 01:02:00;;;;;;;7.75;4.43;;;;;;;7.62;67.86;98218.59;7690824;32;39527;-81
2022/12/10 01:06:19;;;;;;;12.75;4.28;;;;;;;7.90;67.35;98220.41;7685409;32;40908;-80
2022/12/10 01:10:35;;;;;;;74.93;7.28;;;;;;;7.55;68.42;98232.50;7695831;32;38690;-79
2022/12/10 01:14:52;;;;;;;7.93;4.30;;;;;;;7.69;68.04;98229.91;7711905;32;38145;-81
2022/12/10 01:19:08;;;;;;;8.88;5.35;;;;;;;7.75;67.83;98209.75;7710997;32;40177;-80
2022/12/10 01:23:24;;;;;;;15.20;5.07;;;;;;;7.85;67.55;98220.47;7685049;32;40724;-80
2022/12/10 01:27:40;;;;;;;8.40;4.57;;;;;;;7.88;67.42;98221.78;7684791;32;38523;-80
2022/12/10 01:31:57;;;;;;;9.43;4.95;;;;;;;7.92;67.18;98224.72;7702951;32;38189;-80
2022/12/10 01:36:21;;;;;;;93.18;7.65;;;;;;;7.80;67.73;98238.72;7711697;32;40178;-81
2022/12/10 01:40:38;;;;;;;21.58;6.72;;;;;;;7.64;68.30;98233.50;7702001;32;40738;-81
2022/12/10 01:45:00;;;;;;;28.83;5.87;;;;;;;7.67;68.19;98229.38;7684766;32;37818;-81
2022/12/10 01:49:22;;;;;;;102.93;9.48;;;;;;;7.60;68.44;98237.06;7684189;32;37948;-80
2022/12/10 01:53:40;;;;;;;62.67;7.83;;;;;;;7.64;68.13;98240.81;7711478;32;39335;-81
2022/12/10 01:57:57;;;;;;;12.18;5.75;;;;;;;7.75;67.63;98236.88;7711548;32;39087;-81
2022/12/10 02:02:19;;;;;;;13.10;5.75;;;;;;;7.76;67.51;98240.41;7690862;32;37559;-81
2022/12/10 02:06:48;;;;;;;9.57;6.07;;;;;;;7.46;68.59;98254.03;7684852;32;37057;-80
2022/12/10 02:11:27;;;;;;;11.23;6.80;;;;;;;7.38;69.35;98248.44;7694769;32;39369;-81
2022/12/10 02:16:04;;;;;;;16.35;8.07;;;;;;;6.46;74.13;98271.78;7711246;32;40818;-81
2022/12/10 02:20:24;;;;;;;21.12;8.13;;;;;;;6.46;75.25;98282.59;7702696;32;37900;-80
2022/12/10 02:24:41;;;;;;;15.27;7.15;;;;;;;6.09;76.63;98284.72;7683412;32;37075;-81
2022/12/10 02:29:17;;;;;;;100.55;10.88;;;;;;;6.21;76.02;98289.81;7684540;32;39302;-80
2022/12/10 02:33:43;;;;;;;241.90;17.17;;;;;;;6.69;74.33;98292.72;7684250;32;40863;-81
2022/12/10 02:38:11;;;;;;;63.67;10.52;;;;;;;6.37;75.20;98291.31;7684091;32;38069;-80
2022/12/10 02:42:29;;;;;;;220.45;17.15;;;;;;;6.74;74.22;98294.56;7703850;32;38155;-79
2022/12/10 02:46:47;;;;;;;224.45;15.95;;;;;;;6.72;73.33;98292.13;7710698;32;39435;-80
2022/12/10 02:51:03;;;;;;;198.62;15.73;;;;;;;7.04;72.49;98288.09;7699162;32;40128;-81
2022/12/10 02:55:20;;;;;;;266.63;19.17;;;;;;;6.70;73.58;98282.69;7683868;32;37869;-80
2022/12/10 02:59:50;;;;;;;266.73;19.12;;;;;;;6.31;75.49;98276.22;7685157;32;37485;-80
2022/12/10 03:04:12;;;;;;;120.87;12.95;;;;;;;6.73;73.31;98282.12;7709274;32;39262;-81
2022/12/10 03:08:59;;;;;;;121.20;12.25;;;;;;;6.41;74.96;98285.34;7709176;32;40888;-80
2022/12/10 03:13:17;;;;;;;154.57;13.82;;;;;;;6.76;73.13;98274.25;7685302;32;38642;-80
2022/12/10 03:17:34;;;;;;;108.95;12.50;;;;;;;7.06;72.22;98274.25;7681730;32;37312;-80
2022/12/10 03:21:52;;;;;;;154.90;15.18;;;;;;;6.90;72.59;98292.56;7699073;32;39910;-80
2022/12/10 03:26:09;;;;;;;126.90;13.05;;;;;;;7.32;70.84;98293.78;7708591;32;39883;-81
2022/12/10 03:30:25;;;;;;;106.40;12.05;;;;;;;7.17;71.32;98302.88;7701352;32;38476;-80
2022/12/10 03:39:13;;;;;;;156.43;13.07;;;;;;;6.80;72.85;98298.06;7688134;27;20110;-87
2022/12/10 03:43:29;;;;;;;393.45;23.02;;;;;;;7.17;71.80;98291.22;7615836;32;39852;-85
2022/12/10 03:47:46;;;;;;;322.42;18.92;;;;;;;6.88;72.72;98294.72;7630141;32;37610;-88
2022/12/10 03:52:02;;;;;;;147.77;13.75;;;;;;;6.67;73.60;98297.59;7629775;32;37292;-87
2022/12/10 03:56:20;;;;;;;260.10;17.70;;;;;;;7.44;70.53;98296.09;7630015;32;39995;-87
2022/12/10 04:00:36;;;;;;;24.45;10.32;;;;;;;6.91;72.32;98299.59;7629663;32;40036;-87
2022/12/10 04:04:52;;;;;;;168.87;15.38;;;;;;;6.82;73.26;98299.38;7629597;32;38101;-87
2022/12/10 04:09:11;;;;;;;20.92;10.05;;;;;;;6.57;73.16;98312.03;7629620;32;37430;-87
2022/12/10 04:18:02;;;;;;;30.37;9.90;;;;;;;6.38;74.45;98333.56;7629356;32;40935;-86
2022/12/10 04:26:54;;;;;;;21.62;11.15;;;;;;;6.34;75.03;98324.34;7629418;32;37932;-87
2022/12/10 04:31:10;;;;;;;22.52;12.07;;;;;;;6.09;76.11;98324.50;7631550;32;39483;-87
2022/12/10 04:35:27;;;;;;;25.42;13.38;;;;;;;5.97;76.13;98328.34;7633035;32;39989;-86
2022/12/10 04:39:43;;;;;;;25.30;13.13;;;;;;;5.47;78.86;98332.81;7632409;32;37868;-86
2022/12/10 04:43:59;;;;;;;27.17;14.32;;;;;;;5.61;78.49;98338.44;7632644;32;36894;-86
2022/12/10 04:48:16;;;;;;;22.90;12.88;;;;;;;5.35;78.68;98349.31;7632685;32;39932;-86
2022/12/10 04:52:32;;;;;;;25.92;13.62;;;;;;;5.87;76.89;98341.88;7632947;32;39946;-87
2022/12/10 04:56:48;;;;;;;25.00;13.73;;;;;;;5.70;77.68;98339.50;7632863;32;37942;-86
2022/12/10 05:01:06;;;;;;;29.35;14.87;;;;;;;5.97;76.54;98339.16;7646572;32;37348;-86
2022/12/10 05:05:22;;;;;;;23.25;12.93;;;;;;;5.67;77.63;98341.94;7659042;32;39588;-86
2022/12/10 05:09:38;;;;;;;25.33;14.65;;;;;;;5.92;76.19;98354.59;7649398;32;40745;-86
2022/12/10 05:13:55;;;;;;;23.20;13.35;;;;;;;5.42;77.68;98351.75;7632617;32;38645;-87
2022/12/10 05:18:11;;;;;;;23.35;12.70;;;;;;;5.64;77.11;98341.41;7619049;32;36992;-86
2022/12/10 05:27:03;;;;;;;21.33;12.85;;;;;;;5.23;78.00;98355.00;7632298;32;40891;-87
2022/12/10 05:31:28;;;;;;;21.70;11.02;;;;;;;5.57;77.15;98332.78;7632479;32;37556;-86
2022/12/10 05:35:51;;;;;;;19.60;12.00;;;;;;;5.15;78.78;98344.72;7632142;32;36403;-86
2022/12/10 05:40:08;;;;;;;19.12;10.65;;;;;;;4.99;78.91;98354.75;7631826;32;39533;-87
2022/12/10 05:44:24;;;;;;;22.90;12.25;;;;;;;5.38;78.06;98367.69;7631796;32;39851;-87
2022/12/10 05:48:40;;;;;;;21.02;12.05;;;;;;;5.60;76.31;98359.25;7631885;32;37909;-87
2022/12/10 05:52:56;;;;;;;23.00;12.88;;;;;;;6.02;74.84;98376.22;7632172;32;37154;-86
2022/12/10 05:57:13;;;;;;;19.65;11.77;;;;;;;5.61;75.42;98381.72;7632406;32;39427;-85
2022/12/10 06:01:32;;;;;;;23.05;12.52;;;;;;;5.55;76.12;98378.19;7618746;32;39997;-86
2022/12/10 06:05:48;;;;;;;24.27;12.63;;;;;;;5.20;77.36;98385.25;7632199;32;38731;-86
2022/12/10 06:10:04;;;;;;;25.75;13.00;;;;;;;5.55;75.28;98394.41;7632258;32;37293;-86
2022/12/10 06:14:21;;;;;;;26.33;14.18;;;;;;;5.12;76.42;98395.78;7631391;32;39392;-86
2022/12/10 06:18:38;;;;;;;28.25;15.82;;;;;;;5.04;76.67;98405.25;7632257;32;40041;-87
2022/12/10 06:22:54;;;;;;;26.50;15.98;;;;;;;4.71;77.07;98407.37;7631809;32;37872;-87
2022/12/10 06:27:11;;;;;;;31.20;17.55;;;;;;;4.89;76.37;98409.53;7631872;32;37305;-88
2022/12/10 06:31:27;;;;;;;30.55;14.80;;;;;;;4.55;77.01;98424.59;7618568;32;39394;-85
2022/12/10 06:35:43;;;;;;;29.02;17.08;;;;;;;4.53;77.42;98415.97;7631018;32;39871;-87
2022/12/10 06:39:59;;;;;;;28.77;16.42;;;;;;;4.42;77.35;98429.44;7631835;32;37209;-84
2022/12/10 06:44:15;;;;;;;37.63;21.27;;;;;;;4.22;77.89;98446.34;7631725;32;36950;-84
2022/12/10 06:48:31;;;;;;;37.50;19.90;;;;;;;3.93;78.24;98444.06;7631695;32;39111;-84
2022/12/10 06:52:49;;;;;;;32.88;19.05;;;;;;;4.13;77.75;98446.03;7630899;32;40034;-84
2022/12/10 06:57:10;;;;;;;36.45;19.87;;;;;;;4.21;76.38;98458.22;7631817;32;35839;-84
2022/12/10 07:01:26;;;;;;;38.35;18.30;;;;;;;3.82;77.75;98460.44;7631405;32;37490;-74
2022/12/10 07:05:42;;;;;;;46.50;24.58;;;;;;;4.70;76.36;98443.53;7631277;32;39400;-84
2022/12/10 07:09:58;;;;;;;37.92;21.55;;;;;;;4.65;75.44;98446.22;7631165;32;40714;-81
2022/12/10 07:14:16;;;;;;;34.55;19.42;;;;;;;4.95;73.34;98444.66;7631094;32;38642;-83
2022/12/10 07:18:32;;;;;;;32.80;19.00;;;;;;;5.17;74.31;98441.72;7630966;32;38069;-84
2022/12/10 07:22:48;;;;;;;34.47;19.33;;;;;;;5.01;72.20;98460.63;7630987;32;40095;-84
2022/12/10 07:27:08;;;;;;;40.25;23.35;;;;;;;5.48;70.41;98447.94;7630703;32;40721;-85
2022/12/10 07:31:24;;;;;;;46.70;25.80;;;;;;;5.34;70.44;98444.97;7630621;32;37935;-83
2022/12/10 07:35:40;;;;;;;36.65;20.77;;;;;;;5.39;70.11;98438.75;7630649;32;38041;-84
2022/12/10 07:40:04;;;;;;;;;;;;;;;5.28;70.17;98419.03;7630874;32;39130;-83
2022/12/10 07:44:21;;;;;;;36.67;20.27;;;;;;;5.37;69.86;98413.91;7630587;32;41272;-84
2022/12/10 07:48:39;;;;;;;35.60;21.37;;;;;;;5.39;69.40;98412.53;7630280;32;37713;-83
2022/12/10 07:52:55;;;;;;;44.45;23.50;;;;;;;5.10;70.43;98397.97;7630311;32;37965;-83
2022/12/10 07:57:11;;;;;;;40.28;22.77;;;;;;;5.21;69.56;98400.41;7630196;32;39875;-84
2022/12/10 08:01:28;;;;;;;41.95;23.50;;;;;;;5.55;69.08;98417.94;7629997;32;39730;-84
2022/12/10 08:05:44;;;;;;;46.40;23.48;;;;;;;5.70;68.42;98430.63;7632680;32;37948;-84
2022/12/10 08:10:00;;;;;;;39.08;22.65;;;;;;;5.20;69.60;98442.00;7620150;32;37246;-83
2022/12/10 08:14:16;;;;;;;40.00;22.67;;;;;;;5.21;69.88;98435.53;7633525;32;39451;-82
2022/12/10 08:18:33;;;;;;;44.90;23.30;;;;;;;5.44;69.27;98433.34;7633461;32;40014;-83
2022/12/10 08:22:50;;;;;;;39.83;22.58;;;;;;;5.29;69.78;98409.03;7619833;32;38199;-82
2022/12/10 08:27:06;;;;;;;40.50;23.08;;;;;;;5.45;68.92;98389.03;7633307;32;38219;-83
2022/12/10 08:31:24;;;;;;;38.15;22.85;;;;;;;5.11;69.94;98392.28;7633270;32;40277;-82
2022/12/10 08:35:41;;;;;;;35.45;21.08;;;;;;;5.23;69.46;98392.81;7633216;32;40009;-82
2022/12/10 08:39:57;;;;;;;36.90;20.95;;;;;;;5.30;68.78;98413.38;7619730;32;37847;-83
2022/12/10 08:44:14;;;;;;;37.88;21.40;;;;;;;5.55;67.92;98409.81;7633053;32;37099;-83
2022/12/10 08:48:31;;;;;;;34.83;20.70;;;;;;;5.71;68.24;98407.91;7633162;32;40124;-82
2022/12/10 08:52:47;;;;;;;41.22;22.42;;;;;;;5.73;68.49;98400.34;7619654;32;40837;-81
2022/12/10 08:57:03;;;;;;;37.67;21.85;;;;;;;6.00;66.93;98394.59;7632933;32;37976;-83
2022/12/10 09:01:19;;;;;;;40.80;21.70;;;;;;;5.64;67.89;98409.00;7607310;32;37168;-82
2022/12/10 09:05:37;;;;;;;45.42;23.00;;;;;;;5.43;68.74;98410.94;7619440;32;39421;-83
2022/12/10 09:09:53;;;;;;;39.63;21.02;;;;;;;5.76;68.33;98433.06;7619447;32;40027;-83
2022/12/10 09:14:09;;;;;;;37.75;20.08;;;;;;;5.51;69.44;98439.28;7632739;32;38650;-81
2022/12/10 09:18:25;;;;;;;41.83;22.70;;;;;;;5.60;68.83;98445.75;7632555;32;37208;-82
2022/12/10 09:22:42;;;;;;;42.28;23.15;;;;;;;5.14;70.38;98448.50;7632737;32;39874;-81
2022/12/10 09:26:59;;;;;;;44.17;23.65;;;;;;;5.24;70.41;98429.59;7632979;32;39104;-83
2022/12/10 09:31:17;;;;;;;43.78;23.02;;;;;;;5.31;70.26;98436.59;7632610;32;38597;-83
2022/12/10 09:35:39;;;;;;;39.60;21.90;;;;;;;5.57;71.62;98430.09;7632835;32;37235;-81
2022/12/10 09:39:55;;;;;;;43.40;22.23;;;;;;;5.70;73.13;98426.03;7633147;32;39261;-78
2022/12/10 09:44:41;;;;;;;40.05;21.08;;;;;;;5.78;71.34;98420.06;7632774;32;38295;-82
2022/12/10 09:49:08;;;;;;;41.13;22.87;;;;;;;5.98;69.96;98419.22;7632336;32;37997;-82
2022/12/10 09:53:28;;;;;;;45.47;26.08;;;;;;;6.19;68.57;98405.63;7619619;32;38220;-83
2022/12/10 09:57:49;;;;;;;41.78;24.60;;;;;;;6.37;67.56;98402.31;7632442;32;39210;-83
2022/12/10 10:02:23;;;;;;;41.83;23.87;;;;;;;6.61;67.13;98388.09;7619319;32;39967;-83
2022/12/10 10:06:39;;;;;;;42.20;24.12;;;;;;;6.37;67.36;98391.47;7632081;32;38521;-83
2022/12/10 10:10:56;;;;;;;46.17;24.17;;;;;;;5.62;68.93;98394.97;7618941;32;37006;-82
2022/12/10 10:15:18;;;;;;;44.78;23.30;;;;;;;5.50;70.00;98401.72;7632154;32;39394;-83
2022/12/10 10:19:38;;;;;;;40.35;22.52;;;;;;;5.48;70.13;98396.59;7632068;32;39979;-83
2022/12/10 10:23:59;;;;;;;39.85;23.62;;;;;;;5.96;67.77;98382.72;7632092;32;38516;-84
2022/12/10 10:28:20;;;;;;;44.03;23.85;;;;;;;5.99;68.61;98369.44;7630923;32;37245;-83
2022/12/10 10:32:36;;;;;;;43.80;22.13;;;;;;;5.91;68.30;98369.97;7631778;32;39294;-84
2022/12/10 10:36:57;;;;;;;39.25;22.70;;;;;;;6.14;67.43;98382.12;7631473;32;39931;-84
2022/12/10 10:41:14;;;;;;;39.42;21.98;;;;;;;5.62;68.71;98378.72;7618353;32;36890;-83
2022/12/10 10:45:41;;;;;;;41.88;22.15;;;;;;;6.02;67.86;98376.22;7631600;32;37189;-84
2022/12/10 10:49:59;;;;;;;41.17;22.37;;;;;;;5.24;69.14;98380.13;7631732;32;39337;-83
2022/12/10 10:54:36;;;;;;;43.80;24.12;;;;;;;5.47;69.00;98370.66;7631528;32;40859;-83
2022/12/10 10:59:17;;;;;;;39.88;21.08;;;;;;;5.08;69.52;98363.09;7631582;32;37884;-84
2022/12/10 11:03:36;;;;;;;38.90;22.13;;;;;;;5.33;69.25;98369.56;7619500;32;36523;-83
2022/12/10 11:08:13;;;;;;;38.63;20.65;;;;;;;5.01;70.33;98367.97;7631826;32;40260;-83
2022/12/10 11:12:37;;;;;;;41.37;20.65;;;;;;;5.12;70.10;98368.78;7631370;32;39662;-83
2022/12/10 11:17:10;;;;;;;41.28;22.25;;;;;;;5.49;69.27;98359.56;7631056;32;38375;-84
2022/12/10 11:21:26;;;;;;;39.37;21.47;;;;;;;4.98;70.82;98373.91;7631001;32;38099;-84
2022/12/10 11:26:02;;;;;;;39.92;20.98;;;;;;;5.41;69.31;98387.94;7630903;32;39342;-83
2022/12/10 11:30:24;;;;;;;37.03;22.80;;;;;;;5.20;69.84;98369.03;7618016;32;39902;-72
2022/12/10 11:34:59;;;;;;;41.58;22.65;;;;;;;5.67;72.81;98371.69;7617810;32;37830;-82
2022/12/10 11:39:22;;;;;;;147.75;66.53;;;;;;;5.31;70.31;98361.72;7631903;32;37331;-83
2022/12/10 11:44:01;;;;;;;45.22;24.95;;;;;;;5.26;69.66;98364.47;7620448;32;40163;-83
2022/12/10 11:48:35;;;;;;;61.60;38.13;;;;;;;5.68;68.37;98348.97;7622374;32;39982;-82
2022/12/10 11:53:14;;;;;;;39.28;21.80;;;;;;;5.04;70.00;98338.53;7633807;32;37986;-82
2022/12/10 11:57:59;;;;;;;42.22;24.20;;;;;;;5.11;70.82;98335.56;7620992;32;38042;-82
2022/12/10 12:02:18;;;;;;;40.88;23.08;;;;;;;5.80;68.59;98325.13;7633657;32;39835;-83
2022/12/10 12:06:56;;;;;;;35.75;19.92;;;;;;;5.81;67.95;98315.91;7633517;32;40852;-83
2022/12/10 12:11:25;;;;;;;41.95;22.02;;;;;;;5.83;68.01;98311.06;7633494;32;38106;-83
2022/12/10 12:16:09;;;;;;;35.30;20.73;;;;;;;5.65;68.50;98302.44;7633709;32;38064;-83
2022/12/10 12:20:36;;;;;;;39.47;21.15;;;;;;;5.86;68.55;98291.56;7622039;32;39326;-84
2022/12/10 12:24:59;;;;;;;38.78;21.50;;;;;;;5.93;68.24;98297.50;7620727;32;40752;-82
2022/12/10 12:29:27;;;;;;;38.13;20.33;;;;;;;5.87;67.98;98298.59;7620468;32;37866;-82
2022/12/10 12:34:20;;;;;;;39.60;22.25;;;;;;;5.40;69.95;98295.25;7633370;32;37980;-83
2022/12/10 12:39:01;;;;;;;40.30;21.87;;;;;;;5.60;69.15;98297.06;7633140;32;40173;-82
2022/12/10 12:43:23;;;;;;;36.38;21.10;;;;;;;5.49;69.73;98278.47;7633206;32;39781;-84
2022/12/10 12:48:16;;;;;;;43.00;22.37;;;;;;;5.81;68.54;98272.66;7632764;32;38718;-83
2022/12/10 12:52:40;;;;;;;;;;;;;;;5.82;68.69;98274.28;7631849;32;38282;-82
2022/12/10 12:57:12;;;;;;;41.63;24.40;;;;;;;5.84;68.86;98296.44;7633460;32;39613;-83
2022/12/10 13:01:40;;;;;;;38.03;22.25;;;;;;;5.90;68.43;98289.94;7619620;32;39925;-83
2022/12/10 13:06:11;;;;;;;41.22;22.50;;;;;;;5.89;68.56;98290.22;7632676;32;38757;-83
2022/12/10 13:10:56;;;;;;;41.40;24.20;;;;;;;5.79;68.98;98285.66;7632552;32;38142;-82
2022/12/10 13:15:21;;;;;;;40.95;22.13;;;;;;;5.98;68.44;98273.13;7632913;32;39402;-82
2022/12/10 13:19:41;;;;;;;39.78;21.85;;;;;;;5.98;68.48;98281.25;7632716;32;40597;-83
2022/12/10 13:24:11;;;;;;;38.10;22.17;;;;;;;6.36;66.93;98294.31;7632200;32;37923;-83
2022/12/10 13:28:46;;;;;;;39.03;21.35;;;;;;;5.91;68.32;98294.25;7631539;32;36861;-84
2022/12/10 13:33:17;;;;;;;41.37;22.42;;;;;;;6.08;68.19;98288.50;7630868;32;39375;-84
2022/12/10 13:37:33;;;;;;;38.67;20.00;;;;;;;5.89;68.94;98291.00;7617706;32;39964;-83
2022/12/10 13:47:04;;;;;;;42.95;21.85;;;;;;;5.90;68.11;98287.22;7631451;32;38325;-81
2022/12/10 13:51:32;;;;;;;37.08;20.37;;;;;;;5.85;68.90;98289.97;7619905;32;40115;-85
2022/12/10 13:56:01;;;;;;;42.23;21.57;;;;;;;5.59;69.98;98290.06;7622821;32;316183;-85
2022/12/10 14:00:44;;;;;;;39.78;21.58;;;;;;;5.86;69.77;98283.44;7632308;32;37958;-86
2022/12/10 14:05:20;;;;;;;40.60;20.47;;;;;;;5.43;71.45;98294.72;7607099;32;37066;-85
2022/12/10 14:09:51;;;;;;;35.53;19.62;;;;;;;5.32;71.08;98292.31;7623235;32;39427;-85
2022/12/10 14:14:13;;;;;;;38.80;19.80;;;;;;;5.28;71.49;98294.75;7618092;32;39907;-86
2022/12/10 14:18:30;;;;;;;39.55;17.98;;;;;;;5.52;70.83;98296.81;7618824;32;37842;-84
2022/12/10 14:22:50;;;;;;;36.67;19.00;;;;;;;5.80;69.95;98298.09;7631727;32;37407;-85
2022/12/10 14:27:24;;;;;;;42.85;21.80;;;;;;;5.62;70.37;98292.22;7631932;32;39359;-84
2022/12/10 14:31:45;;;;;;;45.30;23.87;;;;;;;5.71;70.40;98305.12;7631912;32;39701;-85
2022/12/10 14:36:02;;;;;;;39.35;19.40;;;;;;;5.67;70.31;98304.09;7631052;32;37675;-84
2022/12/10 14:40:32;;;;;;;44.53;22.85;;;;;;;5.25;71.35;98293.37;7631922;32;37392;-83
2022/12/10 14:44:58;;;;;;;39.00;19.73;;;;;;;5.73;70.17;98294.88;7631392;32;40127;-83
2022/12/10 14:49:23;;;;;;;34.55;20.48;;;;;;;5.88;69.93;98291.28;7618424;32;39951;-84
2022/12/10 14:53:39;;;;;;;34.15;19.42;;;;;;;5.81;70.10;98286.16;7619914;32;37699;-85
2022/12/10 14:58:00;;;;;;;33.47;18.35;;;;;;;5.95;69.86;98289.91;7630263;32;37894;-83
2022/12/10 15:02:24;;;;;;;35.00;19.27;;;;;;;5.86;70.60;98280.75;7630396;32;39067;-85
2022/12/10 15:06:43;;;;;;;33.75;19.30;;;;;;;5.99;69.69;98277.47;7630435;32;40801;-83
2022/12/10 15:11:01;;;;;;;33.95;19.20;;;;;;;5.97;69.22;98276.94;7631264;32;37624;-83
2022/12/10 15:15:32;;;;;;;36.30;20.42;;;;;;;5.89;69.67;98276.69;7616018;32;37108;-83
2022/12/10 15:19:50;;;;;;;34.78;19.17;;;;;;;5.88;69.59;98267.78;7618882;32;39326;-83
2022/12/10 15:24:25;;;;;;;35.20;18.10;;;;;;;6.09;69.17;98273.91;7629458;32;40074;-85
2022/12/10 15:28:42;;;;;;;32.72;17.80;;;;;;;5.76;70.07;98275.38;7630120;32;39113;-85
2022/12/10 15:32:58;;;;;;;38.00;19.20;;;;;;;6.07;68.78;98276.09;7617019;32;37887;-84
2022/12/10 15:37:27;;;;;;;38.17;20.08;;;;;;;5.87;69.80;98276.97;7630249;32;40225;-83
2022/12/10 15:41:52;;;;;;;40.97;20.33;;;;;;;5.70;72.13;98265.69;7618126;32;40689;-84
2022/12/10 15:46:17;;;;;;;38.90;20.45;;;;;;;5.35;72.05;98265.53;7630309;32;37884;-84
2022/12/10 15:50:33;;;;;;;40.88;20.37;;;;;;;5.97;69.94;98249.88;7600246;32;38184;-83
2022/12/10 15:54:52;;;;;;;39.45;21.05;;;;;;;5.89;70.11;98253.16;7613389;32;39328;-83
2022/12/10 15:59:08;;;;;;;41.47;23.35;;;;;;;6.03;69.45;98250.66;7603454;32;40839;-82
2022/12/10 16:03:27;;;;;;;41.63;22.60;;;;;;;6.04;69.46;98236.06;7602149;32;38761;-83
2022/12/10 16:07:44;;;;;;;38.50;21.20;;;;;;;6.28;69.00;98233.47;7605322;32;36122;-83
2022/12/10 16:12:00;;;;;;;42.85;21.90;;;;;;;6.19;69.43;98230.56;7602390;32;40041;-84
2022/12/10 16:16:17;;;;;;;42.15;21.08;;;;;;;6.05;69.72;98226.03;7603109;32;39856;-84
2022/12/10 16:20:33;;;;;;;37.28;21.95;;;;;;;6.24;69.02;98218.06;7602549;32;37918;-84
2022/12/10 16:24:50;;;;;;;40.97;20.17;;;;;;;6.05;69.45;98218.72;7604541;32;37011;-85
2022/12/10 16:29:07;;;;;;;38.90;21.55;;;;;;;6.43;68.18;98210.87;7606428;32;40072;-84
2022/12/10 16:33:25;;;;;;;36.83;20.08;;;;;;;6.15;68.79;98207.84;7606440;32;39648;-84
2022/12/10 16:37:43;;;;;;;38.70;20.12;;;;;;;6.33;68.59;98206.38;7606782;32;36834;-83
2022/12/10 16:41:59;;;;;;;39.00;20.25;;;;;;;6.24;68.26;98191.81;7606136;32;37280;-84
2022/12/10 16:46:16;;;;;;;40.53;20.65;;;;;;;6.12;69.24;98181.34;7606641;32;40096;-84
2022/12/10 16:50:32;;;;;;;38.22;20.27;;;;;;;5.95;69.95;98183.59;7598831;32;39935;-83
2022/12/10 16:54:48;;;;;;;37.40;20.33;;;;;;;6.00;69.82;98168.19;7606124;32;37916;-83
2022/12/10 16:59:06;;;;;;;39.45;22.48;;;;;;;6.24;69.16;98174.75;7606477;32;37306;-84
2022/12/10 17:03:28;;;;;;;36.78;19.23;;;;;;;6.33;68.93;98176.59;7605911;32;38304;-84
2022/12/10 17:07:44;;;;;;;34.53;18.40;;;;;;;6.15;69.32;98172.66;7606599;32;40130;-83
2022/12/10 17:12:00;;;;;;;37.90;20.55;;;;;;;6.11;69.49;98157.28;7605601;32;37961;-84
2022/12/10 17:16:20;;;;;;;36.47;18.92;;;;;;;6.38;68.58;98145.94;7606420;32;37610;-84
2022/12/10 17:20:37;;;;;;;34.80;18.60;;;;;;;6.53;67.81;98148.50;7606030;32;39432;-83
2022/12/10 17:24:53;;;;;;;33.53;18.83;;;;;;;6.43;68.64;98147.81;7605582;32;40989;-84
2022/12/10 17:29:19;;;;;;;36.10;17.67;;;;;;;6.72;67.34;98145.09;7605954;32;38713;-83
2022/12/10 17:33:35;;;;;;;35.30;17.58;;;;;;;6.45;68.38;98148.31;7605213;32;36984;-84
2022/12/10 17:37:54;;;;;;;30.75;17.62;;;;;;;6.41;68.88;98145.38;7605474;32;39966;-84
2022/12/10 17:42:10;;;;;;;29.48;16.98;;;;;;;6.23;69.30;98127.97;7605217;32;38898;-85
2022/12/10 17:46:28;;;;;;;31.98;16.27;;;;;;;6.44;68.79;98130.50;7596182;32;38586;-84
2022/12/10 17:50:46;;;;;;;29.25;16.83;;;;;;;6.63;68.10;98131.38;7598336;32;36173;-83
2022/12/10 17:55:03;;;;;;;30.62;16.62;;;;;;;6.62;68.10;98126.25;7604448;32;39294;-84
2022/12/10 17:59:19;;;;;;;32.17;16.65;;;;;;;6.62;68.05;98112.69;7604958;32;39650;-84
2022/12/10 18:03:37;;;;;;;30.88;16.73;;;;;;;6.51;68.27;98120.94;7604268;32;38536;-84
2022/12/10 18:07:54;;;;;;;31.37;16.62;;;;;;;6.57;68.24;98114.38;7605320;32;37190;-85
2022/12/10 18:12:11;;;;;;;30.33;16.55;;;;;;;6.55;68.48;98108.44;7603980;32;40162;-84
2022/12/10 18:16:31;;;;;;;33.63;17.48;;;;;;;6.46;68.76;98109.34;7604703;32;39834;-84
2022/12/10 18:20:47;;;;;;;29.58;16.60;;;;;;;6.84;67.50;98093.25;7604442;32;38675;-84
2022/12/10 18:25:03;;;;;;;32.88;18.35;;;;;;;6.70;68.26;98093.91;7604480;32;37126;-85
2022/12/10 18:29:22;;;;;;;34.08;17.62;;;;;;;6.81;67.79;98088.37;7605693;32;39070;-82
2022/12/10 18:33:46;;;;;;;35.22;17.23;;;;;;;6.81;67.60;98077.56;7605414;32;41303;-83
2022/12/10 18:38:05;;;;;;;36.42;20.52;;;;;;;6.64;68.57;98075.31;7605053;32;38742;-84
2022/12/10 18:42:23;;;;;;;39.00;21.55;;;;;;;6.67;68.13;98072.81;7604676;32;37137;-84
2022/12/10 18:46:41;;;;;;;37.92;22.75;;;;;;;6.71;68.07;98076.59;7604572;32;39296;-87
2022/12/10 18:50:57;;;;;;;41.15;22.15;;;;;;;6.70;68.11;98066.84;7602309;32;40862;-84
2022/12/10 18:55:13;;;;;;;40.55;22.58;;;;;;;6.84;67.85;98066.16;7605047;32;39023;-85
2022/12/10 18:59:29;;;;;;;45.47;22.08;;;;;;;6.93;67.41;98057.09;7604134;32;37825;-85
2022/12/10 19:03:46;;;;;;;35.95;21.92;;;;;;;6.97;67.25;98049.19;7603935;32;39880;-85
2022/12/10 19:08:04;;;;;;;48.35;21.95;;;;;;;6.85;67.81;98048.81;7603907;32;39770;-84
2022/12/10 19:12:21;;;;;;;38.30;19.90;;;;;;;6.85;67.80;98040.69;7604265;32;37864;-86
2022/12/10 19:16:38;;;;;;;36.13;20.12;;;;;;;6.83;68.17;98042.84;7603918;32;36723;-85
2022/12/10 19:20:58;;;;;;;34.55;19.58;;;;;;;6.83;67.99;98038.25;7603836;32;40048;-87
2022/12/10 19:25:25;;;;;;;34.83;20.08;;;;;;;6.72;68.55;98040.28;7603775;32;40738;-85
2022/12/10 19:29:48;;;;;;;34.38;19.73;;;;;;;6.66;68.23;98038.72;7602667;32;37998;-85
2022/12/10 19:34:04;;;;;;;36.20;19.23;;;;;;;6.71;68.43;98037.84;7604777;32;37304;-83
2022/12/10 19:38:21;;;;;;;36.85;18.75;;;;;;;6.74;68.04;98024.56;7604357;32;39351;-85
2022/12/10 19:42:37;;;;;;;30.80;17.15;;;;;;;6.67;68.68;98024.09;7604506;32;39676;-84
2022/12/10 19:46:53;;;;;;;33.90;17.45;;;;;;;6.74;68.42;98026.44;7604309;32;37878;-84
2022/12/10 19:51:10;;;;;;;34.10;19.00;;;;;;;6.52;68.89;98014.25;7604404;32;37193;-85
2022/12/10 19:55:27;;;;;;;28.58;16.48;;;;;;;6.73;68.74;98016.72;7603890;32;40034;-86
2022/12/10 19:59:43;;;;;;;31.52;17.87;;;;;;;6.75;68.76;97999.06;7604814;32;40803;-84
2022/12/10 20:03:59;;;;;;;29.00;17.10;;;;;;;6.68;68.83;98000.53;7607444;32;37713;-84
2022/12/10 20:08:16;;;;;;;35.25;18.42;;;;;;;6.46;69.55;97999.16;7607452;32;37187;-85
2022/12/10 20:12:32;;;;;;;29.67;16.55;;;;;;;6.32;70.48;97999.03;7607406;32;39888;-86
2022/12/10 20:16:52;;;;;;;33.00;17.15;;;;;;;6.35;70.35;98000.38;7607253;32;40685;-85
2022/12/10 20:21:08;;;;;;;30.30;16.77;;;;;;;6.21;70.60;98002.97;7606783;32;38791;-85
2022/12/10 20:25:25;;;;;;;32.67;17.30;;;;;;;6.62;69.67;97993.56;7602585;32;37283;-85
2022/12/10 20:29:41;;;;;;;37.40;21.25;;;;;;;6.31;70.51;97994.75;7606599;32;40252;-85
2022/12/10 20:33:57;;;;;;;31.05;17.77;;;;;;;6.32;70.33;97990.91;7606349;32;39920;-86
2022/12/10 20:38:14;;;;;;;36.70;18.85;;;;;;;6.36;70.32;97994.69;7605985;32;39028;-85